sensor_id;sensor_type;location;lat;lon;timestamp;P1;durP1;ratioP1;P2;durP2;ratioP2
6105;SDS011;3083;51.508;7.966;2022-07-12T00:00:09;7.13;;;4.50;;
6105;SDS011;3083;51.508;7.966;2022-07-12T00:02:36;6.87;;;4.70;;
6105;SDS011;3083;51.508;7.966;2022-07-12T00:05:03;5.50;;;4.30;;
6105;SDS011;3083;51.508;7.966;2022-07-12T00:07:32;4.80;;;3.63;;
6105;SDS011;3083;51.508;7.966;2022-07-12T00:09:59;5.10;;;3.83;;
6105;SDS011;3083;51.508;7.966;2022-07-12T00:12:26;5.20;;;4.10;;
6105;SDS011;3083;51.508;7.966;2022-07-12T00:14:53;6.17;;;4.00;;
6105;SDS011;3083;51.508;7.966;2022-07-12T00:17:20;7.80;;;4.57;;
6105;SDS011;3083;51.508;7.966;2022-07-12T00:19:47;5.23;;;4.17;;
6105;SDS011;3083;51.508;7.966;2022-07-12T00:22:14;7.17;;;4.80;;
6105;SDS011;3083;51.508;7.966;2022-07-12T00:24:42;5.77;;;4.40;;
6105;SDS011;3083;51.508;7.966;2022-07-12T00:27:09;5.33;;;4.30;;
6105;SDS011;3083;51.508;7.966;2022-07-12T00:29:36;6.90;;;4.30;;
6105;SDS011;3083;51.508;7.966;2022-07-12T00:32:03;6.67;;;4.87;;
6105;SDS011;3083;51.508;7.966;2022-07-12T00:34:32;6.60;;;4.50;;
6105;SDS011;3083;51.508;7.966;2022-07-12T00:36:59;5.83;;;4.60;;
6105;SDS011;3083;51.508;7.966;2022-07-12T00:39:26;6.33;;;5.00;;
6105;SDS011;3083;51.508;7.966;2022-07-12T00:41:55;7.20;;;5.30;;
6105;SDS011;3083;51.508;7.966;2022-07-12T00:44:22;7.13;;;5.30;;
6105;SDS011;3083;51.508;7.966;2022-07-12T00:46:49;8.20;;;5.70;;
6105;SDS011;3083;51.508;7.966;2022-07-12T00:49:16;6.90;;;5.03;;
6105;SDS011;3083;51.508;7.966;2022-07-12T00:51:43;6.77;;;4.80;;
6105;SDS011;3083;51.508;7.966;2022-07-12T00:54:11;7.17;;;4.60;;
6105;SDS011;3083;51.508;7.966;2022-07-12T00:56:38;7.30;;;5.40;;
6105;SDS011;3083;51.508;7.966;2022-07-12T00:59:06;6.30;;;5.20;;
6105;SDS011;3083;51.508;7.966;2022-07-12T01:01:33;6.10;;;4.80;;
6105;SDS011;3083;51.508;7.966;2022-07-12T01:04:00;6.40;;;5.00;;
6105;SDS011;3083;51.508;7.966;2022-07-12T01:06:28;7.60;;;5.80;;
6105;SDS011;3083;51.508;7.966;2022-07-12T01:08:56;9.40;;;6.20;;
6105;SDS011;3083;51.508;7.966;2022-07-12T01:11:24;7.33;;;5.90;;
6105;SDS011;3083;51.508;7.966;2022-07-12T01:13:51;9.10;;;6.93;;
6105;SDS011;3083;51.508;7.966;2022-07-12T01:16:20;9.60;;;7.07;;
6105;SDS011;3083;51.508;7.966;2022-07-12T01:18:48;11.73;;;8.83;;
6105;SDS011;3083;51.508;7.966;2022-07-12T01:21:15;11.87;;;8.50;;
6105;SDS011;3083;51.508;7.966;2022-07-12T01:23:46;12.07;;;9.20;;
6105;SDS011;3083;51.508;7.966;2022-07-12T01:26:15;13.67;;;9.40;;
6105;SDS011;3083;51.508;7.966;2022-07-12T01:28:42;12.00;;;8.57;;
6105;SDS011;3083;51.508;7.966;2022-07-12T01:31:09;8.30;;;6.07;;
6105;SDS011;3083;51.508;7.966;2022-07-12T01:33:36;7.00;;;5.50;;
6105;SDS011;3083;51.508;7.966;2022-07-12T01:36:04;7.47;;;5.40;;
6105;SDS011;3083;51.508;7.966;2022-07-12T01:38:31;6.70;;;5.30;;
6105;SDS011;3083;51.508;7.966;2022-07-12T01:41:00;9.40;;;5.63;;
6105;SDS011;3083;51.508;7.966;2022-07-12T01:43:27;7.30;;;5.50;;
6105;SDS011;3083;51.508;7.966;2022-07-12T01:45:54;5.27;;;4.43;;
6105;SDS011;3083;51.508;7.966;2022-07-12T01:48:21;7.60;;;5.70;;
6105;SDS011;3083;51.508;7.966;2022-07-12T01:50:48;8.60;;;5.87;;
6105;SDS011;3083;51.508;7.966;2022-07-12T01:53:15;6.73;;;5.37;;
6105;SDS011;3083;51.508;7.966;2022-07-12T01:55:42;7.20;;;5.50;;
6105;SDS011;3083;51.508;7.966;2022-07-12T01:58:12;7.03;;;5.23;;
6105;SDS011;3083;51.508;7.966;2022-07-12T02:00:40;6.63;;;5.10;;
6105;SDS011;3083;51.508;7.966;2022-07-12T02:03:07;7.67;;;5.30;;
6105;SDS011;3083;51.508;7.966;2022-07-12T02:05:34;7.87;;;5.83;;
6105;SDS011;3083;51.508;7.966;2022-07-12T02:08:01;7.73;;;5.50;;
6105;SDS011;3083;51.508;7.966;2022-07-12T02:10:28;8.60;;;6.03;;
6105;SDS011;3083;51.508;7.966;2022-07-12T02:12:55;7.10;;;5.37;;
6105;SDS011;3083;51.508;7.966;2022-07-12T02:15:24;8.70;;;5.70;;
6105;SDS011;3083;51.508;7.966;2022-07-12T02:17:51;8.37;;;5.10;;
6105;SDS011;3083;51.508;7.966;2022-07-12T02:20:18;10.10;;;5.03;;
6105;SDS011;3083;51.508;7.966;2022-07-12T02:22:45;7.93;;;5.50;;
6105;SDS011;3083;51.508;7.966;2022-07-12T02:25:12;11.00;;;5.37;;
6105;SDS011;3083;51.508;7.966;2022-07-12T02:27:39;8.00;;;5.57;;
6105;SDS011;3083;51.508;7.966;2022-07-12T02:30:06;8.30;;;5.43;;
6105;SDS011;3083;51.508;7.966;2022-07-12T02:32:35;9.57;;;5.63;;
6105;SDS011;3083;51.508;7.966;2022-07-12T02:35:03;6.80;;;5.07;;
6105;SDS011;3083;51.508;7.966;2022-07-12T02:37:31;7.70;;;5.63;;
6105;SDS011;3083;51.508;7.966;2022-07-12T02:39:58;13.47;;;5.10;;
6105;SDS011;3083;51.508;7.966;2022-07-12T02:42:38;9.13;;;5.30;;
6105;SDS011;3083;51.508;7.966;2022-07-12T02:45:06;9.60;;;5.30;;
6105;SDS011;3083;51.508;7.966;2022-07-12T02:47:37;8.00;;;5.80;;
6105;SDS011;3083;51.508;7.966;2022-07-12T02:50:04;6.77;;;5.30;;
6105;SDS011;3083;51.508;7.966;2022-07-12T02:52:32;8.17;;;6.00;;
6105;SDS011;3083;51.508;7.966;2022-07-12T02:54:59;9.13;;;6.20;;
6105;SDS011;3083;51.508;7.966;2022-07-12T02:57:26;9.43;;;6.17;;
6105;SDS011;3083;51.508;7.966;2022-07-12T02:59:53;11.43;;;7.13;;
6105;SDS011;3083;51.508;7.966;2022-07-12T03:02:20;14.10;;;7.17;;
6105;SDS011;3083;51.508;7.966;2022-07-12T03:04:48;10.20;;;6.93;;
6105;SDS011;3083;51.508;7.966;2022-07-12T03:07:15;9.43;;;6.47;;
6105;SDS011;3083;51.508;7.966;2022-07-12T03:09:42;8.23;;;6.13;;
6105;SDS011;3083;51.508;7.966;2022-07-12T03:12:10;8.90;;;6.47;;
6105;SDS011;3083;51.508;7.966;2022-07-12T03:14:37;16.20;;;7.00;;
6105;SDS011;3083;51.508;7.966;2022-07-12T03:17:04;15.80;;;7.40;;
6105;SDS011;3083;51.508;7.966;2022-07-12T03:19:31;17.50;;;8.17;;
6105;SDS011;3083;51.508;7.966;2022-07-12T03:21:59;12.00;;;7.97;;
6105;SDS011;3083;51.508;7.966;2022-07-12T03:24:26;11.53;;;7.00;;
6105;SDS011;3083;51.508;7.966;2022-07-12T03:26:53;12.47;;;6.90;;
6105;SDS011;3083;51.508;7.966;2022-07-12T03:29:20;9.87;;;6.57;;
6105;SDS011;3083;51.508;7.966;2022-07-12T03:31:47;9.37;;;6.00;;
6105;SDS011;3083;51.508;7.966;2022-07-12T03:34:14;9.40;;;6.10;;
6105;SDS011;3083;51.508;7.966;2022-07-12T03:36:41;11.73;;;6.00;;
6105;SDS011;3083;51.508;7.966;2022-07-12T03:39:09;11.10;;;6.17;;
6105;SDS011;3083;51.508;7.966;2022-07-12T03:41:36;10.77;;;6.10;;
6105;SDS011;3083;51.508;7.966;2022-07-12T03:44:03;9.20;;;6.43;;
6105;SDS011;3083;51.508;7.966;2022-07-12T03:46:31;7.40;;;5.50;;
6105;SDS011;3083;51.508;7.966;2022-07-12T03:48:58;9.63;;;6.40;;
6105;SDS011;3083;51.508;7.966;2022-07-12T03:51:25;8.80;;;6.07;;
6105;SDS011;3083;51.508;7.966;2022-07-12T03:53:52;9.30;;;6.07;;
6105;SDS011;3083;51.508;7.966;2022-07-12T03:56:21;11.07;;;6.13;;
6105;SDS011;3083;51.508;7.966;2022-07-12T03:59:05;9.50;;;6.60;;
6105;SDS011;3083;51.508;7.966;2022-07-12T04:01:32;8.40;;;6.20;;
6105;SDS011;3083;51.508;7.966;2022-07-12T04:03:59;8.60;;;6.20;;
6105;SDS011;3083;51.508;7.966;2022-07-12T04:06:26;9.20;;;5.53;;
6105;SDS011;3083;51.508;7.966;2022-07-12T04:08:53;8.23;;;5.40;;
6105;SDS011;3083;51.508;7.966;2022-07-12T04:11:22;8.00;;;5.30;;
6105;SDS011;3083;51.508;7.966;2022-07-12T04:13:49;8.63;;;5.83;;
6105;SDS011;3083;51.508;7.966;2022-07-12T04:16:15;7.40;;;5.60;;
6105;SDS011;3083;51.508;7.966;2022-07-12T04:18:42;9.03;;;6.07;;
6105;SDS011;3083;51.508;7.966;2022-07-12T04:21:09;10.20;;;6.00;;
6105;SDS011;3083;51.508;7.966;2022-07-12T04:23:37;9.30;;;6.33;;
6105;SDS011;3083;51.508;7.966;2022-07-12T04:26:04;13.17;;;6.20;;
6105;SDS011;3083;51.508;7.966;2022-07-12T04:28:33;8.93;;;6.17;;
6105;SDS011;3083;51.508;7.966;2022-07-12T04:31:01;8.53;;;5.70;;
6105;SDS011;3083;51.508;7.966;2022-07-12T04:33:28;14.20;;;5.97;;
6105;SDS011;3083;51.508;7.966;2022-07-12T04:35:55;10.20;;;6.13;;
6105;SDS011;3083;51.508;7.966;2022-07-12T04:38:22;9.43;;;6.47;;
6105;SDS011;3083;51.508;7.966;2022-07-12T04:40:49;10.60;;;6.83;;
6105;SDS011;3083;51.508;7.966;2022-07-12T04:43:16;10.23;;;7.13;;
6105;SDS011;3083;51.508;7.966;2022-07-12T04:45:44;10.70;;;6.60;;
6105;SDS011;3083;51.508;7.966;2022-07-12T04:48:12;13.57;;;6.57;;
6105;SDS011;3083;51.508;7.966;2022-07-12T04:50:39;10.30;;;6.57;;
6105;SDS011;3083;51.508;7.966;2022-07-12T04:53:06;13.00;;;6.70;;
6105;SDS011;3083;51.508;7.966;2022-07-12T04:55:33;8.70;;;7.10;;
6105;SDS011;3083;51.508;7.966;2022-07-12T04:58:01;9.70;;;7.40;;
6105;SDS011;3083;51.508;7.966;2022-07-12T05:00:28;11.40;;;7.37;;
6105;SDS011;3083;51.508;7.966;2022-07-12T05:02:57;13.63;;;7.97;;
6105;SDS011;3083;51.508;7.966;2022-07-12T05:05:24;11.67;;;8.53;;
6105;SDS011;3083;51.508;7.966;2022-07-12T05:07:51;12.83;;;7.53;;
6105;SDS011;3083;51.508;7.966;2022-07-12T05:10:18;12.10;;;7.60;;
6105;SDS011;3083;51.508;7.966;2022-07-12T05:12:45;12.57;;;7.67;;
6105;SDS011;3083;51.508;7.966;2022-07-12T05:15:12;14.40;;;6.57;;
6105;SDS011;3083;51.508;7.966;2022-07-12T05:17:39;15.60;;;7.70;;
6105;SDS011;3083;51.508;7.966;2022-07-12T05:20:08;12.30;;;8.03;;
6105;SDS011;3083;51.508;7.966;2022-07-12T05:22:35;12.67;;;8.93;;
6105;SDS011;3083;51.508;7.966;2022-07-12T05:25:02;16.20;;;9.57;;
6105;SDS011;3083;51.508;7.966;2022-07-12T05:27:30;14.30;;;10.47;;
6105;SDS011;3083;51.508;7.966;2022-07-12T05:29:57;16.90;;;10.50;;
6105;SDS011;3083;51.508;7.966;2022-07-12T05:32:24;21.10;;;11.30;;
6105;SDS011;3083;51.508;7.966;2022-07-12T05:34:51;19.63;;;9.93;;
6105;SDS011;3083;51.508;7.966;2022-07-12T05:37:19;14.20;;;9.57;;
6105;SDS011;3083;51.508;7.966;2022-07-12T05:39:48;15.80;;;9.13;;
6105;SDS011;3083;51.508;7.966;2022-07-12T05:42:15;13.63;;;9.13;;
6105;SDS011;3083;51.508;7.966;2022-07-12T05:44:42;12.90;;;8.47;;
6105;SDS011;3083;51.508;7.966;2022-07-12T05:47:09;14.90;;;10.10;;
6105;SDS011;3083;51.508;7.966;2022-07-12T05:49:36;13.60;;;10.20;;
6105;SDS011;3083;51.508;7.966;2022-07-12T05:52:03;10.20;;;7.30;;
6105;SDS011;3083;51.508;7.966;2022-07-12T05:54:49;7.80;;;6.07;;
6105;SDS011;3083;51.508;7.966;2022-07-12T05:57:16;8.00;;;6.00;;
6105;SDS011;3083;51.508;7.966;2022-07-12T05:59:44;10.30;;;6.03;;
6105;SDS011;3083;51.508;7.966;2022-07-12T06:02:12;8.63;;;6.73;;
6105;SDS011;3083;51.508;7.966;2022-07-12T06:04:38;7.73;;;5.70;;
6105;SDS011;3083;51.508;7.966;2022-07-12T06:07:05;6.90;;;4.50;;
6105;SDS011;3083;51.508;7.966;2022-07-12T06:09:32;5.67;;;3.87;;
6105;SDS011;3083;51.508;7.966;2022-07-12T06:12:01;5.60;;;3.90;;
6105;SDS011;3083;51.508;7.966;2022-07-12T06:14:28;7.80;;;4.43;;
6105;SDS011;3083;51.508;7.966;2022-07-12T06:16:55;5.70;;;4.20;;
6105;SDS011;3083;51.508;7.966;2022-07-12T06:19:22;6.70;;;3.90;;
6105;SDS011;3083;51.508;7.966;2022-07-12T06:21:50;5.93;;;4.40;;
6105;SDS011;3083;51.508;7.966;2022-07-12T06:24:17;5.27;;;4.10;;
6105;SDS011;3083;51.508;7.966;2022-07-12T06:26:44;6.30;;;5.03;;
6105;SDS011;3083;51.508;7.966;2022-07-12T06:29:14;9.13;;;5.60;;
6105;SDS011;3083;51.508;7.966;2022-07-12T06:31:41;7.67;;;5.47;;
6105;SDS011;3083;51.508;7.966;2022-07-12T06:34:08;7.57;;;5.83;;
6105;SDS011;3083;51.508;7.966;2022-07-12T06:36:35;6.10;;;5.20;;
6105;SDS011;3083;51.508;7.966;2022-07-12T06:39:01;7.70;;;4.73;;
6105;SDS011;3083;51.508;7.966;2022-07-12T06:41:29;7.30;;;5.27;;
6105;SDS011;3083;51.508;7.966;2022-07-12T06:43:55;7.07;;;5.23;;
6105;SDS011;3083;51.508;7.966;2022-07-12T06:46:24;6.93;;;5.17;;
6105;SDS011;3083;51.508;7.966;2022-07-12T06:48:51;5.50;;;4.87;;
6105;SDS011;3083;51.508;7.966;2022-07-12T06:51:18;5.87;;;5.27;;
6105;SDS011;3083;51.508;7.966;2022-07-12T06:53:45;6.57;;;5.60;;
6105;SDS011;3083;51.508;7.966;2022-07-12T06:56:12;5.93;;;5.33;;
6105;SDS011;3083;51.508;7.966;2022-07-12T06:58:40;6.90;;;5.70;;
6105;SDS011;3083;51.508;7.966;2022-07-12T07:01:07;5.72;;;5.22;;
6105;SDS011;3083;51.508;7.966;2022-07-12T07:03:35;5.97;;;5.03;;
6105;SDS011;3083;51.508;7.966;2022-07-12T07:06:02;5.55;;;5.05;;
6105;SDS011;3083;51.508;7.966;2022-07-12T07:08:29;5.40;;;4.75;;
6105;SDS011;3083;51.508;7.966;2022-07-12T07:10:56;5.72;;;4.40;;
6105;SDS011;3083;51.508;7.966;2022-07-12T07:13:23;5.32;;;4.30;;
6105;SDS011;3083;51.508;7.966;2022-07-12T07:15:50;4.25;;;3.85;;
6105;SDS011;3083;51.508;7.966;2022-07-12T07:18:17;4.75;;;3.97;;
6105;SDS011;3083;51.508;7.966;2022-07-12T07:20:45;4.22;;;3.70;;
6105;SDS011;3083;51.508;7.966;2022-07-12T07:23:12;5.25;;;4.75;;
6105;SDS011;3083;51.508;7.966;2022-07-12T07:25:41;6.10;;;4.90;;
6105;SDS011;3083;51.508;7.966;2022-07-12T07:28:09;4.17;;;3.77;;
6105;SDS011;3083;51.508;7.966;2022-07-12T07:30:36;5.47;;;4.10;;
6105;SDS011;3083;51.508;7.966;2022-07-12T07:33:17;6.20;;;4.30;;
6105;SDS011;3083;51.508;7.966;2022-07-12T07:35:46;5.00;;;4.50;;
6105;SDS011;3083;51.508;7.966;2022-07-12T07:38:13;5.18;;;4.00;;
6105;SDS011;3083;51.508;7.966;2022-07-12T07:40:40;4.32;;;3.92;;
6105;SDS011;3083;51.508;7.966;2022-07-12T07:43:07;4.82;;;3.80;;
6105;SDS011;3083;51.508;7.966;2022-07-12T07:45:35;4.90;;;4.40;;
6105;SDS011;3083;51.508;7.966;2022-07-12T07:48:02;5.68;;;4.95;;
6105;SDS011;3083;51.508;7.966;2022-07-12T07:50:29;4.45;;;3.80;;
6105;SDS011;3083;51.508;7.966;2022-07-12T07:52:58;4.20;;;3.80;;
6105;SDS011;3083;51.508;7.966;2022-07-12T07:55:25;4.00;;;3.60;;
6105;SDS011;3083;51.508;7.966;2022-07-12T07:57:52;5.73;;;4.20;;
6105;SDS011;3083;51.508;7.966;2022-07-12T08:00:19;7.37;;;4.00;;
6105;SDS011;3083;51.508;7.966;2022-07-12T08:02:46;4.00;;;3.37;;
6105;SDS011;3083;51.508;7.966;2022-07-12T08:05:13;4.27;;;3.20;;
6105;SDS011;3083;51.508;7.966;2022-07-12T08:07:40;4.27;;;3.03;;
6105;SDS011;3083;51.508;7.966;2022-07-12T08:10:09;4.10;;;3.30;;
6105;SDS011;3083;51.508;7.966;2022-07-12T08:12:36;4.70;;;3.80;;
6105;SDS011;3083;51.508;7.966;2022-07-12T08:15:03;7.13;;;4.23;;
6105;SDS011;3083;51.508;7.966;2022-07-12T08:17:31;4.93;;;4.40;;
6105;SDS011;3083;51.508;7.966;2022-07-12T08:19:58;4.80;;;3.80;;
6105;SDS011;3083;51.508;7.966;2022-07-12T08:22:25;5.90;;;3.60;;
6105;SDS011;3083;51.508;7.966;2022-07-12T08:24:52;3.47;;;3.07;;
6105;SDS011;3083;51.508;7.966;2022-07-12T08:27:20;4.90;;;2.50;;
6105;SDS011;3083;51.508;7.966;2022-07-12T08:29:48;3.77;;;2.70;;
6105;SDS011;3083;51.508;7.966;2022-07-12T08:32:16;3.93;;;3.17;;
6105;SDS011;3083;51.508;7.966;2022-07-12T08:34:43;5.00;;;3.43;;
6105;SDS011;3083;51.508;7.966;2022-07-12T08:37:10;4.60;;;3.30;;
6105;SDS011;3083;51.508;7.966;2022-07-12T08:39:37;3.27;;;2.53;;
6105;SDS011;3083;51.508;7.966;2022-07-12T08:42:04;5.40;;;2.40;;
6105;SDS011;3083;51.508;7.966;2022-07-12T08:44:36;3.20;;;2.87;;
6105;SDS011;3083;51.508;7.966;2022-07-12T08:47:03;5.77;;;3.70;;
6105;SDS011;3083;51.508;7.966;2022-07-12T08:49:33;4.10;;;2.90;;
6105;SDS011;3083;51.508;7.966;2022-07-12T08:52:00;7.23;;;3.53;;
6105;SDS011;3083;51.508;7.966;2022-07-12T08:54:49;4.60;;;2.80;;
6105;SDS011;3083;51.508;7.966;2022-07-12T08:57:27;3.20;;;2.20;;
6105;SDS011;3083;51.508;7.966;2022-07-12T09:00:01;6.23;;;2.90;;
6105;SDS011;3083;51.508;7.966;2022-07-12T09:02:29;3.20;;;2.57;;
6105;SDS011;3083;51.508;7.966;2022-07-12T09:05:10;3.00;;;2.40;;
6105;SDS011;3083;51.508;7.966;2022-07-12T09:07:38;3.40;;;2.40;;
6105;SDS011;3083;51.508;7.966;2022-07-12T09:10:06;2.83;;;2.50;;
6105;SDS011;3083;51.508;7.966;2022-07-12T09:12:35;2.77;;;2.20;;
6105;SDS011;3083;51.508;7.966;2022-07-12T09:15:17;2.30;;;1.80;;
6105;SDS011;3083;51.508;7.966;2022-07-12T09:17:46;3.27;;;1.90;;
6105;SDS011;3083;51.508;7.966;2022-07-12T09:20:21;3.70;;;2.63;;
6105;SDS011;3083;51.508;7.966;2022-07-12T09:22:53;3.30;;;2.40;;
6105;SDS011;3083;51.508;7.966;2022-07-12T09:25:21;2.97;;;2.30;;
6105;SDS011;3083;51.508;7.966;2022-07-12T09:27:53;2.70;;;2.10;;
6105;SDS011;3083;51.508;7.966;2022-07-12T09:30:22;2.50;;;2.00;;
6105;SDS011;3083;51.508;7.966;2022-07-12T09:32:51;2.70;;;2.10;;
6105;SDS011;3083;51.508;7.966;2022-07-12T09:35:36;2.60;;;2.30;;
6105;SDS011;3083;51.508;7.966;2022-07-12T09:38:21;3.10;;;2.13;;
6105;SDS011;3083;51.508;7.966;2022-07-12T09:40:48;3.10;;;2.40;;
6105;SDS011;3083;51.508;7.966;2022-07-12T09:43:16;2.60;;;2.10;;
6105;SDS011;3083;51.508;7.966;2022-07-12T09:45:45;2.50;;;1.90;;
6105;SDS011;3083;51.508;7.966;2022-07-12T09:48:13;3.22;;;1.90;;
6105;SDS011;3083;51.508;7.966;2022-07-12T09:50:41;2.58;;;1.70;;
6105;SDS011;3083;51.508;7.966;2022-07-12T09:53:13;4.63;;;1.60;;
6105;SDS011;3083;51.508;7.966;2022-07-12T09:55:51;2.00;;;1.40;;
6105;SDS011;3083;51.508;7.966;2022-07-12T09:58:22;2.20;;;1.35;;
6105;SDS011;3083;51.508;7.966;2022-07-12T10:00:54;3.53;;;1.50;;
6105;SDS011;3083;51.508;7.966;2022-07-12T10:03:25;2.20;;;1.50;;
6105;SDS011;3083;51.508;7.966;2022-07-12T10:05:56;2.30;;;1.60;;
6105;SDS011;3083;51.508;7.966;2022-07-12T10:08:26;2.30;;;1.60;;
6105;SDS011;3083;51.508;7.966;2022-07-12T10:10:55;2.20;;;1.58;;
6105;SDS011;3083;51.508;7.966;2022-07-12T10:13:22;1.90;;;1.20;;
6105;SDS011;3083;51.508;7.966;2022-07-12T10:15:49;2.72;;;1.70;;
6105;SDS011;3083;51.508;7.966;2022-07-12T10:18:24;3.08;;;1.60;;
6105;SDS011;3083;51.508;7.966;2022-07-12T10:20:51;3.70;;;1.90;;
6105;SDS011;3083;51.508;7.966;2022-07-12T10:23:28;2.47;;;1.63;;
6105;SDS011;3083;51.508;7.966;2022-07-12T10:25:59;3.83;;;1.63;;
6105;SDS011;3083;51.508;7.966;2022-07-12T10:31:22;2.40;;;1.70;;
6105;SDS011;3083;51.508;7.966;2022-07-12T10:33:59;4.28;;;1.80;;
6105;SDS011;3083;51.508;7.966;2022-07-12T10:42:37;5.95;;;3.15;;
6105;SDS011;3083;51.508;7.966;2022-07-12T10:45:10;5.40;;;3.03;;
6105;SDS011;3083;51.508;7.966;2022-07-12T10:47:55;4.18;;;2.45;;
6105;SDS011;3083;51.508;7.966;2022-07-12T10:53:21;6.05;;;2.00;;
6105;SDS011;3083;51.508;7.966;2022-07-12T10:56:12;2.15;;;1.40;;
6105;SDS011;3083;51.508;7.966;2022-07-12T10:58:42;2.50;;;1.55;;
6105;SDS011;3083;51.508;7.966;2022-07-12T11:01:11;2.17;;;1.40;;
6105;SDS011;3083;51.508;7.966;2022-07-12T11:03:41;2.40;;;1.35;;
6105;SDS011;3083;51.508;7.966;2022-07-12T11:06:11;2.40;;;1.30;;
6105;SDS011;3083;51.508;7.966;2022-07-12T11:11:34;2.13;;;1.20;;
6105;SDS011;3083;51.508;7.966;2022-07-12T11:14:06;2.10;;;1.30;;
6105;SDS011;3083;51.508;7.966;2022-07-12T11:16:33;2.20;;;1.40;;
6105;SDS011;3083;51.508;7.966;2022-07-12T11:19:01;1.85;;;1.20;;
6105;SDS011;3083;51.508;7.966;2022-07-12T11:21:28;2.83;;;1.20;;
6105;SDS011;3083;51.508;7.966;2022-07-12T11:23:56;2.05;;;1.30;;
6105;SDS011;3083;51.508;7.966;2022-07-12T11:26:23;2.40;;;1.55;;
6105;SDS011;3083;51.508;7.966;2022-07-12T11:28:51;2.65;;;1.20;;
6105;SDS011;3083;51.508;7.966;2022-07-12T11:31:25;1.85;;;1.10;;
6105;SDS011;3083;51.508;7.966;2022-07-12T11:33:52;1.80;;;1.23;;
6105;SDS011;3083;51.508;7.966;2022-07-12T11:36:20;2.70;;;2.03;;
6105;SDS011;3083;51.508;7.966;2022-07-12T11:38:52;2.70;;;1.30;;
6105;SDS011;3083;51.508;7.966;2022-07-12T11:41:19;5.70;;;1.60;;
6105;SDS011;3083;51.508;7.966;2022-07-12T11:43:47;3.17;;;1.30;;
6105;SDS011;3083;51.508;7.966;2022-07-12T11:46:15;3.35;;;1.45;;
6105;SDS011;3083;51.508;7.966;2022-07-12T11:48:43;3.05;;;1.30;;
6105;SDS011;3083;51.508;7.966;2022-07-12T11:51:10;2.75;;;1.20;;
6105;SDS011;3083;51.508;7.966;2022-07-12T11:53:40;2.00;;;1.20;;
6105;SDS011;3083;51.508;7.966;2022-07-12T11:56:07;3.13;;;1.40;;
6105;SDS011;3083;51.508;7.966;2022-07-12T11:58:35;2.35;;;1.20;;
6105;SDS011;3083;51.508;7.966;2022-07-12T12:01:03;3.78;;;1.20;;
6105;SDS011;3083;51.508;7.966;2022-07-12T12:03:32;2.08;;;1.20;;
6105;SDS011;3083;51.508;7.966;2022-07-12T12:06:09;2.45;;;1.40;;
6105;SDS011;3083;51.508;7.966;2022-07-12T12:08:36;1.95;;;1.25;;
6105;SDS011;3083;51.508;7.966;2022-07-12T12:11:07;3.25;;;1.52;;
6105;SDS011;3083;51.508;7.966;2022-07-12T12:13:34;2.38;;;1.40;;
6105;SDS011;3083;51.508;7.966;2022-07-12T12:16:02;2.75;;;1.45;;
6105;SDS011;3083;51.508;7.966;2022-07-12T12:18:31;2.45;;;1.45;;
6105;SDS011;3083;51.508;7.966;2022-07-12T12:21:00;1.90;;;1.25;;
6105;SDS011;3083;51.508;7.966;2022-07-12T12:23:28;3.13;;;1.40;;
6105;SDS011;3083;51.508;7.966;2022-07-12T12:26:09;2.20;;;1.35;;
6105;SDS011;3083;51.508;7.966;2022-07-12T12:28:41;3.33;;;1.30;;
6105;SDS011;3083;51.508;7.966;2022-07-12T12:31:13;2.03;;;1.40;;
6105;SDS011;3083;51.508;7.966;2022-07-12T12:33:41;2.20;;;1.40;;
6105;SDS011;3083;51.508;7.966;2022-07-12T12:36:13;3.13;;;1.30;;
6105;SDS011;3083;51.508;7.966;2022-07-12T12:38:42;1.90;;;1.20;;
6105;SDS011;3083;51.508;7.966;2022-07-12T12:41:11;2.42;;;1.23;;
6105;SDS011;3083;51.508;7.966;2022-07-12T12:43:39;3.30;;;1.23;;
6105;SDS011;3083;51.508;7.966;2022-07-12T12:46:06;2.25;;;1.10;;
6105;SDS011;3083;51.508;7.966;2022-07-12T12:48:34;1.80;;;1.10;;
6105;SDS011;3083;51.508;7.966;2022-07-12T12:51:02;2.58;;;1.40;;
6105;SDS011;3083;51.508;7.966;2022-07-12T12:53:31;2.80;;;1.40;;
6105;SDS011;3083;51.508;7.966;2022-07-12T12:55:58;2.13;;;1.35;;
6105;SDS011;3083;51.508;7.966;2022-07-12T12:58:28;2.20;;;1.50;;
6105;SDS011;3083;51.508;7.966;2022-07-12T13:00:56;2.10;;;1.40;;
6105;SDS011;3083;51.508;7.966;2022-07-12T13:03:23;2.10;;;1.20;;
6105;SDS011;3083;51.508;7.966;2022-07-12T13:05:50;2.88;;;1.10;;
6105;SDS011;3083;51.508;7.966;2022-07-12T13:08:18;2.30;;;1.40;;
6105;SDS011;3083;51.508;7.966;2022-07-12T13:10:46;2.10;;;1.30;;
6105;SDS011;3083;51.508;7.966;2022-07-12T13:13:35;1.90;;;1.23;;
6105;SDS011;3083;51.508;7.966;2022-07-12T13:16:03;2.10;;;1.33;;
6105;SDS011;3083;51.508;7.966;2022-07-12T13:18:32;4.15;;;1.48;;
6105;SDS011;3083;51.508;7.966;2022-07-12T13:21:00;3.38;;;1.55;;
6105;SDS011;3083;51.508;7.966;2022-07-12T13:23:27;2.92;;;1.00;;
6105;SDS011;3083;51.508;7.966;2022-07-12T13:25:54;2.60;;;1.20;;
6105;SDS011;3083;51.508;7.966;2022-07-12T13:28:21;2.40;;;1.20;;
6105;SDS011;3083;51.508;7.966;2022-07-12T13:30:50;1.90;;;1.23;;
6105;SDS011;3083;51.508;7.966;2022-07-12T13:33:20;1.90;;;1.17;;
6105;SDS011;3083;51.508;7.966;2022-07-12T13:35:47;2.08;;;1.05;;
6105;SDS011;3083;51.508;7.966;2022-07-12T13:38:14;2.20;;;1.20;;
6105;SDS011;3083;51.508;7.966;2022-07-12T13:40:41;2.00;;;1.20;;
6105;SDS011;3083;51.508;7.966;2022-07-12T13:43:08;2.53;;;1.30;;
6105;SDS011;3083;51.508;7.966;2022-07-12T13:45:35;1.95;;;1.27;;
6105;SDS011;3083;51.508;7.966;2022-07-12T13:48:04;2.33;;;1.23;;
6105;SDS011;3083;51.508;7.966;2022-07-12T13:50:31;2.00;;;1.10;;
6105;SDS011;3083;51.508;7.966;2022-07-12T13:52:58;2.78;;;1.20;;
6105;SDS011;3083;51.508;7.966;2022-07-12T13:55:25;4.60;;;1.20;;
6105;SDS011;3083;51.508;7.966;2022-07-12T13:57:53;2.22;;;1.20;;
6105;SDS011;3083;51.508;7.966;2022-07-12T14:00:20;2.20;;;1.10;;
6105;SDS011;3083;51.508;7.966;2022-07-12T14:02:48;2.17;;;1.10;;
6105;SDS011;3083;51.508;7.966;2022-07-12T14:05:17;2.60;;;1.27;;
6105;SDS011;3083;51.508;7.966;2022-07-12T14:07:45;3.47;;;1.20;;
6105;SDS011;3083;51.508;7.966;2022-07-12T14:10:12;3.03;;;1.35;;
6105;SDS011;3083;51.508;7.966;2022-07-12T14:12:40;2.00;;;1.10;;
6105;SDS011;3083;51.508;7.966;2022-07-12T14:15:07;3.35;;;1.33;;
6105;SDS011;3083;51.508;7.966;2022-07-12T14:17:45;2.30;;;1.20;;
6105;SDS011;3083;51.508;7.966;2022-07-12T14:20:15;1.83;;;1.10;;
6105;SDS011;3083;51.508;7.966;2022-07-12T14:22:46;4.28;;;1.35;;
6105;SDS011;3083;51.508;7.966;2022-07-12T14:25:13;1.83;;;1.20;;
6105;SDS011;3083;51.508;7.966;2022-07-12T14:27:42;2.10;;;1.10;;
6105;SDS011;3083;51.508;7.966;2022-07-12T14:30:10;2.60;;;1.30;;
6105;SDS011;3083;51.508;7.966;2022-07-12T14:32:38;2.63;;;1.10;;
6105;SDS011;3083;51.508;7.966;2022-07-12T14:35:06;3.95;;;1.20;;
6105;SDS011;3083;51.508;7.966;2022-07-12T14:37:35;2.00;;;1.20;;
6105;SDS011;3083;51.508;7.966;2022-07-12T14:40:03;3.00;;;1.13;;
6105;SDS011;3083;51.508;7.966;2022-07-12T14:42:31;2.25;;;1.20;;
6105;SDS011;3083;51.508;7.966;2022-07-12T14:44:58;2.95;;;1.20;;
6105;SDS011;3083;51.508;7.966;2022-07-12T14:47:25;2.20;;;1.25;;
6105;SDS011;3083;51.508;7.966;2022-07-12T14:49:52;4.32;;;1.40;;
6105;SDS011;3083;51.508;7.966;2022-07-12T14:52:20;2.75;;;1.30;;
6105;SDS011;3083;51.508;7.966;2022-07-12T14:54:48;2.42;;;1.30;;
6105;SDS011;3083;51.508;7.966;2022-07-12T14:57:16;2.17;;;1.30;;
6105;SDS011;3083;51.508;7.966;2022-07-12T14:59:43;2.00;;;1.33;;
6105;SDS011;3083;51.508;7.966;2022-07-12T15:02:10;2.95;;;1.38;;
6105;SDS011;3083;51.508;7.966;2022-07-12T15:04:37;4.22;;;1.42;;
6105;SDS011;3083;51.508;7.966;2022-07-12T15:07:04;3.00;;;1.40;;
6105;SDS011;3083;51.508;7.966;2022-07-12T15:09:32;4.80;;;1.17;;
6105;SDS011;3083;51.508;7.966;2022-07-12T15:12:01;5.40;;;1.30;;
6105;SDS011;3083;51.508;7.966;2022-07-12T15:14:28;2.03;;;1.10;;
6105;SDS011;3083;51.508;7.966;2022-07-12T15:16:55;2.08;;;1.30;;
6105;SDS011;3083;51.508;7.966;2022-07-12T15:19:22;6.18;;;1.40;;
6105;SDS011;3083;51.508;7.966;2022-07-12T15:21:49;2.38;;;1.17;;
6105;SDS011;3083;51.508;7.966;2022-07-12T15:24:16;2.10;;;1.25;;
6105;SDS011;3083;51.508;7.966;2022-07-12T15:26:43;3.60;;;1.20;;
6105;SDS011;3083;51.508;7.966;2022-07-12T15:29:11;2.30;;;1.20;;
6105;SDS011;3083;51.508;7.966;2022-07-12T15:31:38;2.33;;;1.20;;
6105;SDS011;3083;51.508;7.966;2022-07-12T15:34:05;2.30;;;1.45;;